sensor_id;sensor_type;location;lat;lon;timestamp;pressure;altitude;pressure_sealevel;temperature;humidity
12358;BME280;6243;51.244;6.774;2023-03-23T00:00:28;152716.66;;;20.79;60.93
12358;BME280;6243;51.244;6.774;2023-03-23T00:02:53;152569.38;;;20.21;61.96
12358;BME280;6243;51.244;6.774;2023-03-23T00:05:20;152509.13;;;19.98;62.40
12358;BME280;6243;51.244;6.774;2023-03-23T00:07:46;152692.31;;;20.70;61.32
12358;BME280;6243;51.244;6.774;2023-03-23T00:10:11;152655.19;;;20.55;61.68
12358;BME280;6243;51.244;6.774;2023-03-23T00:12:37;152666.72;;;20.60;61.47
12358;BME280;6243;51.244;6.774;2023-03-23T00:15:04;152746.13;;;20.91;60.27
12358;BME280;6243;51.244;6.774;2023-03-23T00:17:30;152543.69;;;20.11;61.91
12358;BME280;6243;51.244;6.774;2023-03-23T00:19:56;152634.66;;;20.47;61.91
12358;BME280;6243;51.244;6.774;2023-03-23T00:22:22;152793.59;;;21.09;60.09
12358;BME280;6243;51.244;6.774;2023-03-23T00:24:48;152864.09;;;21.37;59.25
12358;BME280;6243;51.244;6.774;2023-03-23T00:27:13;152748.72;;;20.92;60.48
12358;BME280;6243;51.244;6.774;2023-03-23T00:29:39;152647.47;;;20.52;61.49
12358;BME280;6243;51.244;6.774;2023-03-23T00:32:05;152586.03;;;20.28;62.29
12358;BME280;6243;51.244;6.774;2023-03-23T00:34:30;152614.19;;;20.39;62.31
12358;BME280;6243;51.244;6.774;2023-03-23T00:36:56;152829.50;;;21.24;59.83
12358;BME280;6243;51.244;6.774;2023-03-23T00:39:23;152908.94;;;21.55;58.77
12358;BME280;6243;51.244;6.774;2023-03-23T00:41:49;152756.38;;;20.95;59.51
12358;BME280;6243;51.244;6.774;2023-03-23T00:44:15;152869.22;;;21.39;59.66
12358;BME280;6243;51.244;6.774;2023-03-23T00:46:40;152706.41;;;20.75;59.97
12358;BME280;6243;51.244;6.774;2023-03-23T00:49:06;152789.78;;;21.08;60.28
12358;BME280;6243;51.244;6.774;2023-03-23T00:51:31;152705.13;;;20.75;60.64
12358;BME280;6243;51.244;6.774;2023-03-23T00:53:57;152775.59;;;21.02;60.22
12358;BME280;6243;51.244;6.774;2023-03-23T00:56:24;152657.72;;;20.56;61.86
12358;BME280;6243;51.244;6.774;2023-03-23T00:58:49;152841.03;;;21.28;59.71
12358;BME280;6243;51.244;6.774;2023-03-23T01:01:15;152816.66;;;21.18;60.22
12358;BME280;6243;51.244;6.774;2023-03-23T01:03:40;152714.13;;;20.78;61.04
12358;BME280;6243;51.244;6.774;2023-03-23T01:06:07;152512.94;;;19.99;62.46
12358;BME280;6243;51.244;6.774;2023-03-23T01:08:34;152624.41;;;20.43;62.03
12358;BME280;6243;51.244;6.774;2023-03-23T01:11:05;152720.53;;;20.81;60.86
12358;BME280;6243;51.244;6.774;2023-03-23T01:13:32;152853.84;;;21.33;59.80
12358;BME280;6243;51.244;6.774;2023-03-23T01:15:58;152835.91;;;21.26;59.39
12358;BME280;6243;51.244;6.774;2023-03-23T01:18:23;152788.47;;;21.07;59.76
12358;BME280;6243;51.244;6.774;2023-03-23T01:20:49;152712.81;;;20.78;60.10
12358;BME280;6243;51.244;6.774;2023-03-23T01:23:14;152853.84;;;21.33;59.44
12358;BME280;6243;51.244;6.774;2023-03-23T01:25:40;152709.00;;;20.76;60.57
12358;BME280;6243;51.244;6.774;2023-03-23T01:28:05;152671.81;;;20.62;60.90
12358;BME280;6243;51.244;6.774;2023-03-23T01:30:32;152923.06;;;21.60;58.79
12358;BME280;6243;51.244;6.774;2023-03-23T01:32:58;152923.06;;;21.60;58.55
12358;BME280;6243;51.244;6.774;2023-03-23T01:35:23;152720.53;;;20.81;60.77
12358;BME280;6243;51.244;6.774;2023-03-23T01:37:49;152785.91;;;21.06;60.88
12358;BME280;6243;51.244;6.774;2023-03-23T01:40:15;152459.22;;;19.78;65.17
12358;BME280;6243;51.244;6.774;2023-03-23T01:42:41;152582.13;;;20.26;63.69
12358;BME280;6243;51.244;6.774;2023-03-23T01:45:25;152744.84;;;20.90;62.80
12358;BME280;6243;51.244;6.774;2023-03-23T01:47:59;152735.88;;;20.87;62.18
12358;BME280;6243;51.244;6.774;2023-03-23T01:50:28;152679.53;;;20.65;63.00
12358;BME280;6243;51.244;6.774;2023-03-23T01:52:57;152399.03;;;19.54;65.86
12358;BME280;6243;51.244;6.774;2023-03-23T01:55:24;152269.69;;;19.03;68.15
12358;BME280;6243;51.244;6.774;2023-03-23T01:57:52;152501.41;;;19.95;65.67
12358;BME280;6243;51.244;6.774;2023-03-23T02:00:19;152501.41;;;19.95;66.38
12358;BME280;6243;51.244;6.774;2023-03-23T02:02:47;152684.66;;;20.67;64.87
12358;BME280;6243;51.244;6.774;2023-03-23T02:05:18;152583.44;;;20.27;65.02
12358;BME280;6243;51.244;6.774;2023-03-23T02:07:47;152703.84;;;20.74;64.54
12358;BME280;6243;51.244;6.774;2023-03-23T02:10:12;152857.69;;;21.35;62.46
12358;BME280;6243;51.244;6.774;2023-03-23T02:12:38;152470.72;;;19.83;67.17
12358;BME280;6243;51.244;6.774;2023-03-23T02:15:04;152737.19;;;20.87;64.25
12358;BME280;6243;51.244;6.774;2023-03-23T02:17:37;152588.56;;;20.29;66.41
12358;BME280;6243;51.244;6.774;2023-03-23T02:20:18;152587.31;;;20.28;66.25
12358;BME280;6243;51.244;6.774;2023-03-23T02:23:15;152459.22;;;19.78;67.12
12358;BME280;6243;51.244;6.774;2023-03-23T02:25:58;152651.31;;;20.53;65.58
12358;BME280;6243;51.244;6.774;2023-03-23T02:28:55;152602.66;;;20.34;66.11
12358;BME280;6243;51.244;6.774;2023-03-23T02:31:38;152810.25;;;21.16;63.86
12358;BME280;6243;51.244;6.774;2023-03-23T02:34:10;152574.50;;;20.23;64.91
12358;BME280;6243;51.244;6.774;2023-03-23T02:36:40;152530.88;;;20.06;66.36
12358;BME280;6243;51.244;6.774;2023-03-23T02:39:10;152678.25;;;20.64;64.42
12358;BME280;6243;51.244;6.774;2023-03-23T02:41:41;152536.00;;;20.08;65.90
12358;BME280;6243;51.244;6.774;2023-03-23T02:44:08;152666.72;;;20.60;64.64
12358;BME280;6243;51.244;6.774;2023-03-23T02:46:38;152646.19;;;20.51;64.26
12358;BME280;6243;51.244;6.774;2023-03-23T02:49:05;152630.84;;;20.45;64.93
12358;BME280;6243;51.244;6.774;2023-03-23T02:51:34;152755.13;;;20.94;62.59
12358;BME280;6243;51.244;6.774;2023-03-23T02:54:01;152393.91;;;19.52;66.13
12358;BME280;6243;51.244;6.774;2023-03-23T02:56:29;152598.84;;;20.33;64.89
12358;BME280;6243;51.244;6.774;2023-03-23T02:58:55;152656.47;;;20.56;63.99
12358;BME280;6243;51.244;6.774;2023-03-23T03:01:47;152646.19;;;20.51;64.04
12358;BME280;6243;51.244;6.774;2023-03-23T03:04:17;152730.78;;;20.85;63.06
12358;BME280;6243;51.244;6.774;2023-03-23T03:06:53;152538.56;;;20.09;65.13
12358;BME280;6243;51.244;6.774;2023-03-23T03:09:27;152565.44;;;20.20;64.37
12358;BME280;6243;51.244;6.774;2023-03-23T03:11:57;152792.31;;;21.09;61.99
12358;BME280;6243;51.244;6.774;2023-03-23T03:14:29;152666.72;;;20.60;62.96
12358;BME280;6243;51.244;6.774;2023-03-23T03:17:00;152580.91;;;20.26;64.20
12358;BME280;6243;51.244;6.774;2023-03-23T03:19:29;152700.00;;;20.73;62.88
12358;BME280;6243;51.244;6.774;2023-03-23T03:21:58;152500.19;;;19.94;64.27
12358;BME280;6243;51.244;6.774;2023-03-23T03:24:27;152489.91;;;19.90;64.10
12358;BME280;6243;51.244;6.774;2023-03-23T03:26:54;152571.91;;;20.22;64.39
12358;BME280;6243;51.244;6.774;2023-03-23T03:29:25;152564.16;;;20.19;64.35
12358;BME280;6243;51.244;6.774;2023-03-23T03:31:51;152628.25;;;20.44;63.24
12358;BME280;6243;51.244;6.774;2023-03-23T03:34:18;152674.41;;;20.63;62.11
12358;BME280;6243;51.244;6.774;2023-03-23T03:36:45;152669.25;;;20.61;62.88
12358;BME280;6243;51.244;6.774;2023-03-23T03:39:14;152665.41;;;20.59;62.94
12358;BME280;6243;51.244;6.774;2023-03-23T03:41:40;152574.50;;;20.23;62.90
12358;BME280;6243;51.244;6.774;2023-03-23T03:44:06;152711.53;;;20.77;62.09
12358;BME280;6243;51.244;6.774;2023-03-23T03:46:32;152752.53;;;20.93;61.76
12358;BME280;6243;51.244;6.774;2023-03-23T03:48:59;152525.75;;;20.04;64.26
12358;BME280;6243;51.244;6.774;2023-03-23T03:51:25;152579.59;;;20.25;63.54
12358;BME280;6243;51.244;6.774;2023-03-23T03:53:51;152675.66;;;20.63;62.56
12358;BME280;6243;51.244;6.774;2023-03-23T03:56:19;152725.66;;;20.83;61.99
12358;BME280;6243;51.244;6.774;2023-03-23T03:58:44;152539.88;;;20.10;64.08
12358;BME280;6243;51.244;6.774;2023-03-23T04:01:10;152574.50;;;20.23;63.45
12358;BME280;6243;51.244;6.774;2023-03-23T04:03:36;152436.16;;;19.69;64.63
12358;BME280;6243;51.244;6.774;2023-03-23T04:06:03;152571.91;;;20.22;63.76
12358;BME280;6243;51.244;6.774;2023-03-23T04:08:29;152378.50;;;19.46;65.53
12358;BME280;6243;51.244;6.774;2023-03-23T04:10:54;152477.09;;;19.85;64.89
12358;BME280;6243;51.244;6.774;2023-03-23T04:13:22;152504.00;;;19.96;64.65
12358;BME280;6243;51.244;6.774;2023-03-23T04:15:48;152495.00;;;19.92;63.46
12358;BME280;6243;51.244;6.774;2023-03-23T04:18:14;152664.13;;;20.59;62.22
12358;BME280;6243;51.244;6.774;2023-03-23T04:20:41;152666.72;;;20.60;61.83
12358;BME280;6243;51.244;6.774;2023-03-23T04:23:06;152516.81;;;20.01;63.28
12358;BME280;6243;51.244;6.774;2023-03-23T04:25:32;152482.25;;;19.87;64.48
12358;BME280;6243;51.244;6.774;2023-03-23T04:27:57;152507.81;;;19.97;63.87
12358;BME280;6243;51.244;6.774;2023-03-23T04:30:24;152733.31;;;20.86;61.52
12358;BME280;6243;51.244;6.774;2023-03-23T04:32:51;152847.44;;;21.31;60.00
12358;BME280;6243;51.244;6.774;2023-03-23T04:35:18;152751.25;;;20.93;61.42
12358;BME280;6243;51.244;6.774;2023-03-23T04:37:44;152765.38;;;20.98;61.12
12358;BME280;6243;51.244;6.774;2023-03-23T04:40:10;152673.13;;;20.62;61.14
12358;BME280;6243;51.244;6.774;2023-03-23T04:42:36;152684.66;;;20.67;61.21
12358;BME280;6243;51.244;6.774;2023-03-23T04:45:03;152782.06;;;21.05;60.61
12358;BME280;6243;51.244;6.774;2023-03-23T04:47:32;152580.91;;;20.26;61.39
12358;BME280;6243;51.244;6.774;2023-03-23T04:49:57;152607.78;;;20.36;62.47
12358;BME280;6243;51.244;6.774;2023-03-23T04:52:24;152514.25;;;20.00;62.93
12358;BME280;6243;51.244;6.774;2023-03-23T04:54:49;152564.16;;;20.19;62.42
12358;BME280;6243;51.244;6.774;2023-03-23T04:57:15;152687.19;;;20.68;61.85
12358;BME280;6243;51.244;6.774;2023-03-23T04:59:41;152632.13;;;20.46;61.41
12358;BME280;6243;51.244;6.774;2023-03-23T05:02:06;152743.59;;;20.90;60.92
12358;BME280;6243;51.244;6.774;2023-03-23T05:04:33;152628.25;;;20.44;61.78
12358;BME280;6243;51.244;6.774;2023-03-23T05:06:59;152674.41;;;20.63;60.74
12358;BME280;6243;51.244;6.774;2023-03-23T05:09:24;152815.38;;;21.18;59.66
12358;BME280;6243;51.244;6.774;2023-03-23T05:11:50;152584.72;;;20.27;61.34
12358;BME280;6243;51.244;6.774;2023-03-23T05:14:15;152782.06;;;21.05;60.08
12358;BME280;6243;51.244;6.774;2023-03-23T05:16:41;152556.50;;;20.16;61.45
12358;BME280;6243;51.244;6.774;2023-03-23T05:19:06;152697.47;;;20.72;60.93
12358;BME280;6243;51.244;6.774;2023-03-23T05:21:33;152712.81;;;20.78;60.44
12358;BME280;6243;51.244;6.774;2023-03-23T05:23:59;152680.78;;;20.65;59.99
12358;BME280;6243;51.244;6.774;2023-03-23T05:26:24;152642.34;;;20.50;60.57
12358;BME280;6243;51.244;6.774;2023-03-23T05:28:50;152618.00;;;20.40;60.97
12358;BME280;6243;51.244;6.774;2023-03-23T05:31:15;152642.34;;;20.50;61.27
12358;BME280;6243;51.244;6.774;2023-03-23T05:33:41;152851.25;;;21.32;58.72
12358;BME280;6243;51.244;6.774;2023-03-23T05:36:07;152725.66;;;20.83;59.66
12358;BME280;6243;51.244;6.774;2023-03-23T05:38:34;152664.13;;;20.59;60.48
12358;BME280;6243;51.244;6.774;2023-03-23T05:40:59;152715.38;;;20.79;60.07
12358;BME280;6243;51.244;6.774;2023-03-23T05:43:25;152871.81;;;21.40;58.59
12358;BME280;6243;51.244;6.774;2023-03-23T05:45:50;152930.72;;;21.63;58.20
12358;BME280;6243;51.244;6.774;2023-03-23T05:48:16;152843.56;;;21.29;59.08
12358;BME280;6243;51.244;6.774;2023-03-23T05:50:41;152843.56;;;21.29;58.60
12358;BME280;6243;51.244;6.774;2023-03-23T05:53:07;152683.34;;;20.66;59.70
12358;BME280;6243;51.244;6.774;2023-03-23T05:55:33;152839.72;;;21.28;58.63
12358;BME280;6243;51.244;6.774;2023-03-23T05:57:59;152875.63;;;21.42;58.34
12358;BME280;6243;51.244;6.774;2023-03-23T06:00:25;152806.44;;;21.14;58.93
12358;BME280;6243;51.244;6.774;2023-03-23T06:02:54;152752.53;;;20.93;58.89
12358;BME280;6243;51.244;6.774;2023-03-23T06:05:20;152792.31;;;21.09;59.12
12358;BME280;6243;51.244;6.774;2023-03-23T06:07:45;152870.50;;;21.40;58.35
12358;BME280;6243;51.244;6.774;2023-03-23T06:10:11;152733.31;;;20.86;59.82
12358;BME280;6243;51.244;6.774;2023-03-23T06:12:39;152758.94;;;20.96;58.55
12358;BME280;6243;51.244;6.774;2023-03-23T06:15:06;152516.81;;;20.01;60.66
12358;BME280;6243;51.244;6.774;2023-03-23T06:17:32;152723.06;;;20.82;59.69
12358;BME280;6243;51.244;6.774;2023-03-23T06:19:57;152597.53;;;20.32;60.48
12358;BME280;6243;51.244;6.774;2023-03-23T06:22:23;152610.38;;;20.37;60.08
12358;BME280;6243;51.244;6.774;2023-03-23T06:24:48;152623.13;;;20.42;60.38
12358;BME280;6243;51.244;6.774;2023-03-23T06:27:14;152539.88;;;20.10;60.24
12358;BME280;6243;51.244;6.774;2023-03-23T06:29:41;152810.25;;;21.16;58.21
12358;BME280;6243;51.244;6.774;2023-03-23T06:32:06;152673.13;;;20.62;59.48
12358;BME280;6243;51.244;6.774;2023-03-23T06:34:32;152584.72;;;20.27;60.10
12358;BME280;6243;51.244;6.774;2023-03-23T06:36:57;152696.19;;;20.71;59.46
12358;BME280;6243;51.244;6.774;2023-03-23T06:39:23;152511.69;;;19.99;60.27
12358;BME280;6243;51.244;6.774;2023-03-23T06:41:48;152725.66;;;20.83;58.78
12358;BME280;6243;51.244;6.774;2023-03-23T06:44:14;152479.66;;;19.86;60.49
12358;BME280;6243;51.244;6.774;2023-03-23T06:46:41;152619.31;;;20.41;59.35
12358;BME280;6243;51.244;6.774;2023-03-23T06:49:07;152769.19;;;21.00;58.34
12358;BME280;6243;51.244;6.774;2023-03-23T06:51:33;152638.53;;;20.48;59.37
12358;BME280;6243;51.244;6.774;2023-03-23T06:53:59;152642.34;;;20.50;59.14
12358;BME280;6243;51.244;6.774;2023-03-23T06:56:24;152493.78;;;19.92;60.55
12358;BME280;6243;51.244;6.774;2023-03-23T06:58:50;152656.47;;;20.56;58.90
12358;BME280;6243;51.244;6.774;2023-03-23T07:01:15;152533.47;;;20.07;59.22
12358;BME280;6243;51.244;6.774;2023-03-23T07:03:42;152660.28;;;20.57;58.98
12358;BME280;6243;51.244;6.774;2023-03-23T07:06:09;152748.72;;;20.92;57.72
12358;BME280;6243;51.244;6.774;2023-03-23T07:08:34;152856.38;;;21.34;57.29
12358;BME280;6243;51.244;6.774;2023-03-23T07:11:00;152960.22;;;21.75;55.91
12358;BME280;6243;51.244;6.774;2023-03-23T07:13:25;152911.53;;;21.56;56.38
12358;BME280;6243;51.244;6.774;2023-03-23T07:15:51;153010.31;;;21.95;55.57
12358;BME280;6243;51.244;6.774;2023-03-23T07:18:16;152788.47;;;21.07;57.10
12358;BME280;6243;51.244;6.774;2023-03-23T07:20:47;152621.88;;;20.42;59.07
12358;BME280;6243;51.244;6.774;2023-03-23T07:23:12;152714.13;;;20.78;58.37
12358;BME280;6243;51.244;6.774;2023-03-23T07:25:38;152685.94;;;20.67;58.82
12358;BME280;6243;51.244;6.774;2023-03-23T07:28:03;152615.47;;;20.39;59.23
12358;BME280;6243;51.244;6.774;2023-03-23T07:30:29;152601.38;;;20.34;59.62
12358;BME280;6243;51.244;6.774;2023-03-23T07:32:55;152832.03;;;21.25;57.56
12358;BME280;6243;51.244;6.774;2023-03-23T07:35:20;152694.88;;;20.71;58.64
12358;BME280;6243;51.244;6.774;2023-03-23T07:37:47;152584.72;;;20.27;58.85
12358;BME280;6243;51.244;6.774;2023-03-23T07:40:13;152839.72;;;21.28;57.49
12358;BME280;6243;51.244;6.774;2023-03-23T07:42:40;152756.38;;;20.95;57.64
12358;BME280;6243;51.244;6.774;2023-03-23T07:45:06;152785.91;;;21.06;57.04
12358;BME280;6243;51.244;6.774;2023-03-23T07:47:32;152898.69;;;21.51;56.30
12358;BME280;6243;51.244;6.774;2023-03-23T07:49:57;152832.03;;;21.25;56.84
12358;BME280;6243;51.244;6.774;2023-03-23T07:52:23;152843.56;;;21.29;56.17
12358;BME280;6243;51.244;6.774;2023-03-23T07:54:50;152993.66;;;21.88;55.45
12358;BME280;6243;51.244;6.774;2023-03-23T07:57:16;152844.84;;;21.30;56.29
12358;BME280;6243;51.244;6.774;2023-03-23T07:59:41;152901.25;;;21.52;55.81
12358;BME280;6243;51.244;6.774;2023-03-23T08:02:08;152943.56;;;21.68;55.53
12358;BME280;6243;51.244;6.774;2023-03-23T08:04:34;153012.84;;;21.96;54.81
12358;BME280;6243;51.244;6.774;2023-03-23T08:07:00;152879.47;;;21.43;55.63
12358;BME280;6243;51.244;6.774;2023-03-23T08:09:25;152984.63;;;21.84;54.92
12358;BME280;6243;51.244;6.774;2023-03-23T08:11:52;152996.19;;;21.89;54.56
12358;BME280;6243;51.244;6.774;2023-03-23T08:14:17;153082.09;;;22.23;53.95
12358;BME280;6243;51.244;6.774;2023-03-23T08:16:43;152920.47;;;21.59;54.94
12358;BME280;6243;51.244;6.774;2023-03-23T08:19:09;152901.25;;;21.52;55.15
12358;BME280;6243;51.244;6.774;2023-03-23T08:21:34;152676.94;;;20.64;56.36
12358;BME280;6243;51.244;6.774;2023-03-23T08:24:00;152751.25;;;20.93;56.25
12358;BME280;6243;51.244;6.774;2023-03-23T08:26:25;152997.47;;;21.89;54.77
12358;BME280;6243;51.244;6.774;2023-03-23T08:28:52;153033.38;;;22.04;53.94
12358;BME280;6243;51.244;6.774;2023-03-23T08:31:18;153034.63;;;22.04;54.21
12358;BME280;6243;51.244;6.774;2023-03-23T08:33:43;152976.88;;;21.81;53.90
12358;BME280;6243;51.244;6.774;2023-03-23T08:36:09;153042.34;;;22.07;53.50
12358;BME280;6243;51.244;6.774;2023-03-23T08:38:35;153078.25;;;22.21;53.65
12358;BME280;6243;51.244;6.774;2023-03-23T08:41:03;153025.69;;;22.01;53.83
12358;BME280;6243;51.244;6.774;2023-03-23T08:43:29;153120.59;;;22.38;53.36
12358;BME280;6243;51.244;6.774;2023-03-23T08:45:56;152941.03;;;21.67;54.50
12358;BME280;6243;51.244;6.774;2023-03-23T08:48:22;153105.19;;;22.32;53.28
12358;BME280;6243;51.244;6.774;2023-03-23T08:50:48;152894.88;;;21.49;54.27
12358;BME280;6243;51.244;6.774;2023-03-23T08:53:13;152938.44;;;21.66;54.57
12358;BME280;6243;51.244;6.774;2023-03-23T08:55:39;152953.81;;;21.72;54.31
12358;BME280;6243;51.244;6.774;2023-03-23T08:58:05;153128.25;;;22.41;53.19
12358;BME280;6243;51.244;6.774;2023-03-23T09:00:30;152949.97;;;21.71;54.00
12358;BME280;6243;51.244;6.774;2023-03-23T09:02:58;152943.56;;;21.68;54.30
12358;BME280;6243;51.244;6.774;2023-03-23T09:05:26;153166.78;;;22.56;52.54
12358;BME280;6243;51.244;6.774;2023-03-23T09:07:53;152893.59;;;21.49;53.68
12358;BME280;6243;51.244;6.774;2023-03-23T09:10:20;153132.16;;;22.42;53.07
12358;BME280;6243;51.244;6.774;2023-03-23T09:12:47;152861.50;;;21.36;54.23
12358;BME280;6243;51.244;6.774;2023-03-23T09:15:14;152839.72;;;21.28;54.14
12358;BME280;6243;51.244;6.774;2023-03-23T09:17:43;153023.09;;;22.00;53.65
12358;BME280;6243;51.244;6.774;2023-03-23T09:20:12;153019.25;;;21.98;53.55
12358;BME280;6243;51.244;6.774;2023-03-23T09:22:39;153056.47;;;22.13;53.25
12358;BME280;6243;51.244;6.774;2023-03-23T09:25:06;152984.63;;;21.84;53.96
12358;BME280;6243;51.244;6.774;2023-03-23T09:27:33;153087.22;;;22.25;53.27
12358;BME280;6243;51.244;6.774;2023-03-23T09:29:58;153195.03;;;22.67;52.51
12358;BME280;6243;51.244;6.774;2023-03-23T09:32:24;152967.94;;;21.78;54.02
12358;BME280;6243;51.244;6.774;2023-03-23T09:34:49;153206.59;;;22.72;52.23
12358;BME280;6243;51.244;6.774;2023-03-23T09:37:16;153087.22;;;22.25;53.17
12358;BME280;6243;51.244;6.774;2023-03-23T09:39:42;153016.72;;;21.97;53.44
12358;BME280;6243;51.244;6.774;2023-03-23T09:42:18;153102.63;;;22.31;52.31
12358;BME280;6243;51.244;6.774;2023-03-23T09:44:59;152915.38;;;21.57;53.79
12358;BME280;6243;51.244;6.774;2023-03-23T09:47:33;153096.22;;;22.28;52.71
12358;BME280;6243;51.244;6.774;2023-03-23T09:50:07;153263.03;;;22.94;51.58
12358;BME280;6243;51.244;6.774;2023-03-23T09:52:40;153310.53;;;23.12;52.03
12358;BME280;6243;51.244;6.774;2023-03-23T09:55:09;153301.56;;;23.09;52.72
12358;BME280;6243;51.244;6.774;2023-03-23T09:57:40;153265.63;;;22.95;54.15
12358;BME280;6243;51.244;6.774;2023-03-23T10:00:12;153320.78;;;23.16;54.25
12358;BME280;6243;51.244;6.774;2023-03-23T10:02:41;153295.16;;;23.06;54.81
12358;BME280;6243;51.244;6.774;2023-03-23T10:05:23;153306.69;;;23.11;54.95
12358;BME280;6243;51.244;6.774;2023-03-23T10:07:52;153307.94;;;23.11;54.80
12358;BME280;6243;51.244;6.774;2023-03-23T10:10:19;153272.03;;;22.97;55.22
12358;BME280;6243;51.244;6.774;2023-03-23T10:12:52;153250.19;;;22.89;55.04
12358;BME280;6243;51.244;6.774;2023-03-23T10:15:25;153254.06;;;22.90;55.38
12358;BME280;6243;51.244;6.774;2023-03-23T10:17:55;153198.88;;;22.69;55.50
12358;BME280;6243;51.244;6.774;2023-03-23T10:20:42;153205.31;;;22.71;55.07
12358;BME280;6243;51.244;6.774;2023-03-23T10:23:15;153211.72;;;22.74;55.06
12358;BME280;6243;51.244;6.774;2023-03-23T10:25:43;153218.13;;;22.76;54.95
12358;BME280;6243;51.244;6.774;2023-03-23T10:28:13;153198.88;;;22.69;55.35
12358;BME280;6243;51.244;6.774;2023-03-23T10:30:41;153213.00;;;22.74;55.48
12358;BME280;6243;51.244;6.774;2023-03-23T10:33:14;153197.59;;;22.68;55.77
12358;BME280;6243;51.244;6.774;2023-03-23T10:35:44;153159.06;;;22.53;56.50
12358;BME280;6243;51.244;6.774;2023-03-23T10:38:19;153071.84;;;22.19;57.02
12358;BME280;6243;51.244;6.774;2023-03-23T10:40:49;153056.47;;;22.13;57.76
12358;BME280;6243;51.244;6.774;2023-03-23T10:43:15;153055.19;;;22.12;58.47
12358;BME280;6243;51.244;6.774;2023-03-23T10:45:44;153088.50;;;22.25;57.89
12358;BME280;6243;51.244;6.774;2023-03-23T10:48:13;153026.97;;;22.01;58.86
12358;BME280;6243;51.244;6.774;2023-03-23T10:50:41;153023.09;;;22.00;59.62
12358;BME280;6243;51.244;6.774;2023-03-23T10:53:15;153028.25;;;22.02;58.83
12358;BME280;6243;51.244;6.774;2023-03-23T10:55:42;153020.56;;;21.99;58.91
12358;BME280;6243;51.244;6.774;2023-03-23T10:58:11;153051.34;;;22.11;58.37
12358;BME280;6243;51.244;6.774;2023-03-23T11:00:41;153059.00;;;22.14;58.22
12358;BME280;6243;51.244;6.774;2023-03-23T11:03:24;153043.63;;;22.08;58.34
12358;BME280;6243;51.244;6.774;2023-03-23T11:05:52;153062.88;;;22.15;58.69
12358;BME280;6243;51.244;6.774;2023-03-23T11:08:21;153041.06;;;22.07;58.75
12358;BME280;6243;51.244;6.774;2023-03-23T11:10:49;153037.22;;;22.05;58.63
12358;BME280;6243;51.244;6.774;2023-03-23T11:13:17;153046.16;;;22.09;58.54
12358;BME280;6243;51.244;6.774;2023-03-23T11:15:44;153033.38;;;22.04;58.49
12358;BME280;6243;51.244;6.774;2023-03-23T11:18:11;153038.50;;;22.06;58.87
12358;BME280;6243;51.244;6.774;2023-03-23T11:20:39;153074.44;;;22.20;58.46
12358;BME280;6243;51.244;6.774;2023-03-23T11:23:21;153039.81;;;22.06;59.36
12358;BME280;6243;51.244;6.774;2023-03-23T11:25:56;153042.34;;;22.07;59.47
12358;BME280;6243;51.244;6.774;2023-03-23T11:28:28;153060.31;;;22.14;59.41
12358;BME280;6243;51.244;6.774;2023-03-23T11:30:55;153056.47;;;22.13;59.99
12358;BME280;6243;51.244;6.774;2023-03-23T11:33:22;153074.44;;;22.20;59.18
12358;BME280;6243;51.244;6.774;2023-03-23T11:35:48;152876.94;;;21.42;60.88
12358;BME280;6243;51.244;6.774;2023-03-23T11:38:18;153007.72;;;21.94;60.25
12358;BME280;6243;51.244;6.774;2023-03-23T11:40:48;152919.19;;;21.59;61.19
12358;BME280;6243;51.244;6.774;2023-03-23T11:43:18;152944.84;;;21.69;61.37
12358;BME280;6243;51.244;6.774;2023-03-23T11:45:48;152648.78;;;20.52;63.96
12358;BME280;6243;51.244;6.774;2023-03-23T11:48:21;152906.41;;;21.54;62.28
12358;BME280;6243;51.244;6.774;2023-03-23T11:50:51;152756.38;;;20.95;64.29
12358;BME280;6243;51.244;6.774;2023-03-23T11:53:24;152687.19;;;20.68;64.76
12358;BME280;6243;51.244;6.774;2023-03-23T11:56:00;152639.78;;;20.49;67.86
12358;BME280;6243;51.244;6.774;2023-03-23T11:58:27;152848.69;;;21.31;65.04
12358;BME280;6243;51.244;6.774;2023-03-23T12:01:00;152858.97;;;21.35;64.58
12358;BME280;6243;51.244;6.774;2023-03-23T12:03:37;152935.84;;;21.65;64.73
12358;BME280;6243;51.244;6.774;2023-03-23T12:06:06;153033.38;;;22.04;62.62
12358;BME280;6243;51.244;6.774;2023-03-23T12:08:45;152994.88;;;21.88;63.20
12358;BME280;6243;51.244;6.774;2023-03-23T12:11:19;152849.97;;;21.32;64.59
12358;BME280;6243;51.244;6.774;2023-03-23T12:14:00;153006.44;;;21.93;63.49
12358;BME280;6243;51.244;6.774;2023-03-23T12:16:39;152862.81;;;21.37;66.00
12358;BME280;6243;51.244;6.774;2023-03-23T12:19:12;153051.34;;;22.11;63.84
12358;BME280;6243;51.244;6.774;2023-03-23T12:21:49;153030.81;;;22.03;63.94
12358;BME280;6243;51.244;6.774;2023-03-23T12:24:27;153089.81;;;22.26;63.18
12358;BME280;6243;51.244;6.774;2023-03-23T12:27:01;152938.44;;;21.66;63.61
12358;BME280;6243;51.244;6.774;2023-03-23T12:29:43;153153.94;;;22.51;62.04
12358;BME280;6243;51.244;6.774;2023-03-23T12:32:25;153152.66;;;22.50;62.77
12358;BME280;6243;51.244;6.774;2023-03-23T12:34:57;153088.50;;;22.25;63.01
12358;BME280;6243;51.244;6.774;2023-03-23T12:37:38;153106.47;;;22.32;63.30
12358;BME280;6243;51.244;6.774;2023-03-23T12:40:19;153143.69;;;22.47;63.63
12358;BME280;6243;51.244;6.774;2023-03-23T12:42:55;153080.84;;;22.22;64.32
12358;BME280;6243;51.244;6.774;2023-03-23T12:45:41;153084.69;;;22.24;64.69
12358;BME280;6243;51.244;6.774;2023-03-23T12:48:12;153214.31;;;22.75;62.65
12358;BME280;6243;51.244;6.774;2023-03-23T12:50:41;153128.25;;;22.41;65.00
12358;BME280;6243;51.244;6.774;2023-03-23T12:53:10;153186.03;;;22.64;63.94
12358;BME280;6243;51.244;6.774;2023-03-23T12:55:42;153225.84;;;22.79;63.79
12358;BME280;6243;51.244;6.774;2023-03-23T12:58:14;153101.34;;;22.30;64.88
12358;BME280;6243;51.244;6.774;2023-03-23T13:00:54;153070.56;;;22.18;64.05
12358;BME280;6243;51.244;6.774;2023-03-23T13:03:24;153178.38;;;22.61;63.82
12358;BME280;6243;51.244;6.774;2023-03-23T13:05:57;153132.16;;;22.42;64.78